Tropical Cyclones
[Index]
Main Index Home Page Stock Weather Photos Extreme Storms Discussion Storm News and Storm Chasing Reports Tropical Cyclones / Hurricanes / Typhoons Weather Data and Links Wild Fires / Bushfires Weather Observation Techniques Weather Picture Catalogue Tornado Pictures and Reports Stock Video Footage and DVDs for sale
Season 1997-1998 Tropical Cyclone LUSI Track Map
Season 1997-1998 Summaries: [BoM-AU] [JTWC-AU] [JTWC-SIO] [JTWC-SPAC] [JTWC-SH]
<<- Previous TC | JTWC 1997-1998 Season | Next TC ->>

click for intensity scale information  Lat/long Grid: Show Hide

 Date Labels: Show Hide

Joint Typhoon Warning Centre Cyclone Data

Name: LUSI

04 Oct 1997 06:00 UTC to 13 Oct 1997 06:00 UTC

    date/time    lat    long     hPa   cat  kts
1997-10-04 06    4.0   170.0                  15          
1997-10-04 12    4.1   170.3                  15          
1997-10-04 18    4.3   170.8                  15          
1997-10-05 00    4.5   171.3                  15          
1997-10-05 06    4.7   172.0                  15          
1997-10-05 12    4.9   172.7                  15          
1997-10-05 18    5.3   173.0                  15          
1997-10-06 00    5.7   173.2                  15          
1997-10-06 06    6.0   173.0                  15          
1997-10-06 12    6.0   172.6                  15          
1997-10-06 18    6.0   172.2                  20          
1997-10-07 00    6.0   171.7                  20          
1997-10-07 06    6.0   171.1                  20          
1997-10-07 12    6.0   170.6                  20          
1997-10-07 18    6.0   170.2                  25          
1997-10-08 00    6.2   169.8                  25          
1997-10-08 06    6.5   169.5                  25          
1997-10-08 12    6.8   169.1                  30          
1997-10-08 18    7.3   168.9                  30          
1997-10-09 00    7.8   169.0                  35          
1997-10-09 06    8.3   169.3                  35          
1997-10-09 12    9.1   170.0            1     40          
1997-10-09 18   10.3   170.7            1     45          
1997-10-10 00   11.6   171.3            1     50          
1997-10-10 06   13.0   171.8            2     55          
1997-10-10 12   14.4   172.4            2     60          
1997-10-10 18   15.6   173.0            2     55          
1997-10-11 00   16.7   173.7            2     55          
1997-10-11 06   17.8   174.5            2     55          
1997-10-11 12   18.8   175.6            1     50          
1997-10-11 18   20.0   176.4            1     50          
1997-10-12 00   21.3   176.8            1     45          
1997-10-12 06   22.4   177.0            1     40          
1997-10-12 12   23.4   177.4                  35          
1997-10-12 18   24.3   178.0                  30          
1997-10-13 00   25.2   178.6                  30          
1997-10-13 06   26.0   179.4                  30          
Winds are 1-min average.

Tropical cyclone tracks developed by Michael Bath using data from the Joint Typhoon Warning Centre Best Tracks and Google Maps.


[Australian Severe Weather index] [Copyright Notice] [Email Contacts] [Search This Site] [Privacy Policy]
Document: tropical_cyclone_lusi.htm Updated: 18 September 2016